createdAt,value
2022-08-28T00:04:22.729Z,0.2
2022-08-28T00:09:21.044Z,0.2
2022-08-28T00:24:18.394Z,0.2
2022-08-28T00:29:18.082Z,0.2
2022-08-28T00:34:18.242Z,0.2
2022-08-28T00:39:21.270Z,0.2
2022-08-28T01:13:28.010Z,0.2
2022-08-28T01:18:27.644Z,0.3
2022-08-28T01:23:27.700Z,0.2
2022-08-28T01:28:26.916Z,0.2
2022-08-28T01:33:29.525Z,0.3
2022-08-28T01:38:28.689Z,0.3
2022-08-28T01:43:22.724Z,0.2
2022-08-28T01:48:22.342Z,0.3
2022-08-28T01:53:33.570Z,0.3
2022-08-28T01:58:21.910Z,0.3
2022-08-28T01:59:44.831Z,0.3
2022-08-28T02:04:49.004Z,0.3
2022-08-28T02:09:41.701Z,0.2
2022-08-28T02:14:40.597Z,0.3
2022-08-28T02:19:39.028Z,0.2
2022-08-28T02:24:38.744Z,0.2
2022-08-28T02:29:37.366Z,0.2
2022-08-28T02:34:37.055Z,0.2
2022-08-28T02:39:36.662Z,0.2
2022-08-28T02:44:36.601Z,0.3
2022-08-28T02:49:37.988Z,0.3
2022-08-28T02:54:34.932Z,0.3
2022-08-28T02:58:58.022Z,0.2
2022-08-28T03:03:54.242Z,0.3
2022-08-28T03:08:53.777Z,0.2
2022-08-28T03:13:52.785Z,0.2
2022-08-28T03:18:52.414Z,0.2
2022-08-28T03:23:52.115Z,0.2
2022-08-28T03:28:51.717Z,0.2
2022-08-28T03:33:50.982Z,0.2
2022-08-28T03:38:50.357Z,0.3
2022-08-28T03:43:47.656Z,0.3
2022-08-28T03:48:46.747Z,0.3
2022-08-28T03:53:46.149Z,0.3
2022-08-28T03:58:45.418Z,0.3
2022-08-28T04:03:45.604Z,0.3
2022-08-28T04:08:44.889Z,0.3
2022-08-28T04:13:45.769Z,0.3
2022-08-28T04:18:42.934Z,0.3
2022-08-28T04:23:43.374Z,0.4
2022-08-28T04:28:39.989Z,0.5
2022-08-28T04:33:39.105Z,0.7
2022-08-28T04:38:44.698Z,1.1
2022-08-28T04:43:38.166Z,1.6
2022-08-28T04:48:38.167Z,2.1
2022-08-28T04:53:37.199Z,3.3
2022-08-28T04:58:36.755Z,4.2
2022-08-28T05:03:35.775Z,5.6
2022-08-28T05:08:34.043Z,7.4
2022-08-28T05:13:34.388Z,8.7
2022-08-28T05:18:33.697Z,11.1
2022-08-28T05:23:33.556Z,12.4
2022-08-28T05:28:33.205Z,14.3
2022-08-28T05:33:32.785Z,18.3
2022-08-28T05:38:32.466Z,22.1
2022-08-28T05:43:31.091Z,24.5
2022-08-28T05:48:39.032Z,28.9
2022-08-28T05:53:28.750Z,36
2022-08-28T05:58:28.145Z,39
2022-08-28T05:59:49.775Z,40.6
2022-08-28T06:04:49.729Z,38.8
2022-08-28T06:09:49.245Z,36.9
2022-08-28T06:14:49.047Z,50.9
2022-08-28T06:19:48.188Z,48.1
2022-08-28T06:24:47.297Z,36.4
2022-08-28T06:29:45.542Z,30.5
2022-08-28T06:34:44.809Z,32.5
2022-08-28T06:39:44.270Z,46.6
2022-08-28T06:44:44.136Z,58.3
2022-08-28T06:49:43.629Z,63.9
2022-08-28T06:54:57.108Z,81.7
2022-08-28T06:59:18.447Z,97.3
2022-08-28T07:04:18.460Z,99.5
2022-08-28T07:09:16.454Z,112.5
2022-08-28T07:14:16.307Z,118.6
2022-08-28T07:19:15.834Z,122.7
2022-08-28T07:24:15.331Z,135.9
2022-08-28T07:29:28.075Z,143.4
2022-08-28T07:34:06.771Z,143.7
2022-08-28T07:39:05.964Z,156.5
2022-08-28T07:44:04.607Z,170.5
2022-08-28T07:49:03.690Z,179.5
2022-08-28T07:54:02.845Z,187.1
2022-08-28T07:58:51.603Z,166.8
2022-08-28T08:04:02.743Z,174.8
2022-08-28T08:08:50.677Z,164.5
2022-08-28T08:13:52.441Z,162.8
2022-08-28T08:18:50.148Z,181.2
2022-08-28T08:23:50.405Z,129.3
2022-08-28T08:28:47.250Z,105.1
2022-08-28T08:33:46.652Z,109.5
2022-08-28T08:38:47.079Z,189.3
2022-08-28T08:43:46.081Z,173.3
2022-08-28T08:48:45.541Z,616
2022-08-28T08:53:45.153Z,301.4
2022-08-28T08:58:45.540Z,242
2022-08-28T09:03:45.908Z,229.9
2022-08-28T09:08:44.234Z,253.8
2022-08-28T09:13:41.586Z,178.4
2022-08-28T09:18:40.615Z,185.6
2022-08-28T09:23:40.051Z,679.1
2022-08-28T09:28:39.777Z,714.6
2022-08-28T09:33:42.869Z,211
2022-08-28T09:38:39.907Z,766.3
2022-08-28T09:43:38.639Z,327
2022-08-28T09:48:37.508Z,274
2022-08-28T09:53:37.844Z,746.8
2022-08-28T09:58:35.343Z,811.7
2022-08-28T09:59:57.358Z,813.4
2022-08-28T10:04:56.983Z,334.5
2022-08-28T10:09:58.128Z,275.3
2022-08-28T10:14:56.348Z,761.6
2022-08-28T10:19:56.106Z,748.1
2022-08-28T10:24:54.559Z,869.4
2022-08-28T10:29:53.640Z,309.9
2022-08-28T10:34:51.726Z,406.9
2022-08-28T10:39:50.859Z,297.7
2022-08-28T10:44:49.612Z,462.7
2022-08-28T10:49:48.806Z,795.5
2022-08-28T10:54:48.629Z,673.5
2022-08-28T10:58:57.541Z,244.2
2022-08-28T11:03:57.829Z,551.4
2022-08-28T11:09:17.947Z,794.4
2022-08-28T11:13:56.412Z,733.7
2022-08-28T11:18:54.969Z,758.4
2022-08-28T11:28:54.733Z,758.1
2022-08-28T11:33:54.172Z,751.2
2022-08-28T11:38:53.181Z,730.6
2022-08-28T11:43:51.804Z,753.7
2022-08-28T11:48:51.198Z,767.2
2022-08-28T11:53:50.082Z,745.9
2022-08-28T11:58:50.786Z,698.1
2022-08-28T12:03:49.443Z,704.6
2022-08-28T12:08:49.248Z,700.5
2022-08-28T12:13:49.546Z,673.7
2022-08-28T12:18:48.426Z,699.9
2022-08-28T12:23:47.402Z,703.7
2022-08-28T12:28:46.173Z,703.4
2022-08-28T12:33:45.359Z,753.8
2022-08-28T12:38:44.522Z,733.9
2022-08-28T12:43:48.274Z,746.7
2022-08-28T12:48:43.866Z,698.5
2022-08-28T12:53:43.454Z,691.9
2022-08-28T12:58:42.997Z,710.1
2022-08-28T13:03:41.915Z,711.8
2022-08-28T13:08:41.328Z,713
2022-08-28T13:13:38.976Z,659
2022-08-28T13:18:38.457Z,207.7
2022-08-28T13:23:37.309Z,619.6
2022-08-28T13:28:37.273Z,581.3
2022-08-28T13:33:36.689Z,630.9
2022-08-28T13:38:36.203Z,606.8
2022-08-28T13:43:35.104Z,384.2
2022-08-28T13:48:34.298Z,517.9
2022-08-28T13:53:34.165Z,310.2
2022-08-28T13:58:31.599Z,118.9
2022-08-28T13:59:56.819Z,113.2
2022-08-28T14:04:51.947Z,582.9
2022-08-28T14:09:57.431Z,567.7
2022-08-28T14:14:50.841Z,546.4
2022-08-28T14:19:50.344Z,529.5
2022-08-28T14:24:50.553Z,530.1
2022-08-28T14:29:49.166Z,514.6
2022-08-28T14:34:49.587Z,500.1
2022-08-28T14:39:45.943Z,491.4
2022-08-28T14:44:44.917Z,480.3
2022-08-28T14:49:45.058Z,91.6
2022-08-28T14:54:44.073Z,78.7
2022-08-28T14:59:04.976Z,55.2
2022-08-28T15:04:04.837Z,51.2
2022-08-28T15:09:03.429Z,404.3
2022-08-28T15:14:02.383Z,396.8
2022-08-28T15:19:01.022Z,386
2022-08-28T15:24:00.331Z,325.3
2022-08-28T15:28:59.231Z,137.3
2022-08-28T15:33:59.095Z,156.9
2022-08-28T15:38:59.592Z,218
2022-08-28T15:43:58.255Z,182
2022-08-28T15:48:58.257Z,112.2
2022-08-28T15:53:56.835Z,137.5
2022-08-28T15:58:19.179Z,59.5
2022-08-28T16:03:19.294Z,180.7
2022-08-28T16:08:17.120Z,123
2022-08-28T16:13:16.277Z,203.2
2022-08-28T16:18:15.585Z,53.3
2022-08-28T16:23:14.115Z,209.4
2022-08-28T16:28:21.419Z,68.8
2022-08-28T16:33:20.671Z,77.7
2022-08-28T16:38:20.880Z,178.9
2022-08-28T16:43:18.214Z,165.1
2022-08-28T16:48:17.775Z,153.1
2022-08-28T16:53:28.909Z,138.3
2022-08-28T16:58:18.831Z,59.7
2022-08-28T16:59:38.817Z,61
2022-08-28T17:04:37.608Z,106.2
2022-08-28T17:09:36.602Z,91
2022-08-28T17:14:34.950Z,37.6
2022-08-28T17:19:34.330Z,42.3
2022-08-28T17:24:33.663Z,49.5
2022-08-28T17:29:32.698Z,59
2022-08-28T17:34:32.243Z,51.6
2022-08-28T17:39:31.285Z,43.9
2022-08-28T17:44:31.004Z,20.2
2022-08-28T17:49:29.525Z,16.1
2022-08-28T17:54:28.356Z,12.4
2022-08-28T17:58:45.510Z,9.8
2022-08-28T18:00:07.291Z,9.1
2022-08-28T18:05:05.720Z,6.6
2022-08-28T18:10:05.402Z,4.5
2022-08-28T18:15:04.507Z,3.7
2022-08-28T18:20:04.092Z,2.2
2022-08-28T18:25:02.829Z,1.3
2022-08-28T18:30:03.062Z,0.8
2022-08-28T18:35:02.117Z,0.5
2022-08-28T18:39:59.713Z,0.3
2022-08-28T18:44:57.587Z,0.3
2022-08-28T18:49:56.746Z,0.3
2022-08-28T18:55:06.110Z,0.3
2022-08-28T18:58:56.811Z,0.3
2022-08-28T19:03:56.456Z,0.3
2022-08-28T19:08:56.154Z,0.3
2022-08-28T19:13:55.276Z,0.3
2022-08-28T19:18:55.926Z,0.3
2022-08-28T19:23:57.361Z,0.3
2022-08-28T19:28:51.015Z,0.3
2022-08-28T19:33:50.820Z,0.3
2022-08-28T19:38:49.120Z,0.3
2022-08-28T19:43:49.002Z,0.3
2022-08-28T19:48:49.208Z,0.3
2022-08-28T19:53:49.218Z,0.3
2022-08-28T19:58:47.155Z,0.3
2022-08-28T20:00:16.511Z,0.3
2022-08-28T20:05:15.929Z,0.3
2022-08-28T20:10:15.271Z,0.3
2022-08-28T20:15:17.511Z,0.3
2022-08-28T20:20:06.457Z,0.3
2022-08-28T20:25:06.382Z,0.3
2022-08-28T20:30:12.636Z,0.2
2022-08-28T20:35:05.757Z,0.2
2022-08-28T20:40:09.790Z,0.2
2022-08-28T20:45:01.475Z,0.2
2022-08-28T20:50:00.838Z,0.2
2022-08-28T20:54:59.935Z,0.3
2022-08-28T20:59:21.049Z,0.2
2022-08-28T21:04:20.701Z,0.3
2022-08-28T21:09:19.414Z,0.3
2022-08-28T21:14:19.136Z,0.2
2022-08-28T21:19:18.316Z,0.2
2022-08-28T21:24:15.788Z,0.2
2022-08-28T21:29:16.208Z,0.2
2022-08-28T21:34:14.705Z,0.2
2022-08-28T21:39:14.322Z,0.2
2022-08-28T21:44:14.034Z,0.2
2022-08-28T21:49:20.382Z,0.2
2022-08-28T21:54:20.817Z,0.2
2022-08-28T21:59:02.523Z,0.2
2022-08-28T22:04:01.756Z,0.2
2022-08-28T22:09:00.016Z,0.2
2022-08-28T22:13:59.635Z,0.2
2022-08-28T22:18:58.735Z,0.2
2022-08-28T22:23:58.447Z,0.2
2022-08-28T22:28:57.259Z,0.2
2022-08-28T22:33:56.548Z,0.2
2022-08-28T22:38:56.537Z,0.2
2022-08-28T22:43:54.028Z,0.2
2022-08-28T22:48:53.083Z,0.2
2022-08-28T22:53:52.923Z,0.2
2022-08-28T22:58:52.046Z,0.2
2022-08-28T23:03:52.074Z,0.2
2022-08-28T23:08:51.486Z,0.2
2022-08-28T23:13:50.290Z,0.2
2022-08-28T23:19:13.227Z,0.2
2022-08-28T23:23:47.085Z,0.2
2022-08-28T23:28:45.867Z,0.2
2022-08-28T23:33:45.672Z,0.2
2022-08-28T23:38:44.923Z,0.2
2022-08-28T23:43:44.134Z,0.2
2022-08-28T23:48:45.943Z,0.2
2022-08-28T23:53:43.941Z,0.2
2022-08-28T23:58:46.053Z,0.2
